Time;durP1;ratioP1;P1;durP2;ratioP2;P2;SDS_P1;SDS_P2;PMS_P1;PMS_P2;Temp;Humidity;BMP_temperature;BMP_pressure;BME280_temperature;BME280_humidity;BME280_pressure;Samples;Min_cycle;Max_cycle;Signal;HPM_P1;HPM_P2
2024/04/09 00:00:14;;;;;;;6.93;3.03;;;;;15.40;96486.00;;;;5311591;26;20240;-69
2024/04/09 00:03:05;;;;;;;5.50;2.37;;;;;15.50;96483.00;;;;5314276;26;20333;-69
2024/04/09 00:05:54;;;;;;;8.97;3.80;;;;;15.80;96485.00;;;;5320880;26;20366;-69
2024/04/09 00:08:48;;;;;;;9.43;3.93;;;;;15.60;96477.00;;;;5311405;26;20271;-70
2024/04/09 00:11:36;;;;;;;8.53;3.40;;;;;15.40;96483.00;;;;5314891;26;20726;-69
2024/04/09 00:14:27;;;;;;;6.53;2.90;;;;;15.30;96479.00;;;;5306181;26;20233;-69
2024/04/09 00:17:19;;;;;;;11.50;4.43;;;;;15.40;96484.00;;;;5309662;26;20706;-69
2024/04/09 00:20:09;;;;;;;6.20;2.70;;;;;15.40;96478.00;;;;5313808;26;20278;-69
2024/04/09 00:23:00;;;;;;;5.17;2.40;;;;;15.30;96475.00;;;;5309569;26;20282;-69
2024/04/09 00:25:51;;;;;;;10.17;4.17;;;;;14.80;96477.00;;;;5311651;26;20979;-69
2024/04/09 00:28:42;;;;;;;6.40;2.57;;;;;14.90;96465.00;;;;5299790;26;20275;-69
2024/04/09 00:31:31;;;;;;;7.67;3.10;;;;;15.50;96475.00;;;;5314583;26;20347;-69
2024/04/09 00:34:22;;;;;;;6.70;2.80;;;;;14.90;96467.00;;;;5316369;26;20282;-69
2024/04/09 00:37:11;;;;;;;9.70;3.90;;;;;14.80;96458.00;;;;5308662;26;20241;-69
2024/04/09 00:40:02;;;;;;;6.80;2.90;;;;;15.20;96453.00;;;;5306622;26;20236;-69
2024/04/09 00:42:54;;;;;;;10.27;4.23;;;;;15.00;96460.00;;;;5310822;26;20297;-69
2024/04/09 00:45:46;;;;;;;12.00;4.77;;;;;14.50;96445.00;;;;5309830;26;20327;-68
2024/04/09 00:48:34;;;;;;;7.83;3.07;;;;;14.60;96448.00;;;;5314328;26;20289;-69
2024/04/09 00:51:27;;;;;;;6.53;2.70;;;;;15.00;96452.00;;;;5309804;26;20308;-70
2024/04/09 00:54:17;;;;;;;4.90;2.20;;;;;15.30;96452.00;;;;5309849;26;20830;-69
2024/04/09 00:57:08;;;;;;;9.77;3.83;;;;;15.20;96447.00;;;;5311306;26;20240;-69
2024/04/09 00:59:59;;;;;;;9.43;3.87;;;;;15.10;96448.00;;;;5318455;26;20240;-70
2024/04/09 01:02:51;;;;;;;10.90;4.30;;;;;14.50;96445.00;;;;5308959;26;20304;-69
2024/04/09 01:05:41;;;;;;;7.33;3.03;;;;;14.60;96438.00;;;;5316113;26;20296;-69
2024/04/09 01:08:32;;;;;;;7.67;3.30;;;;;14.50;96436.00;;;;5305103;26;20279;-69
2024/04/09 01:11:20;;;;;;;8.50;3.47;;;;;14.40;96434.00;;;;5308494;26;20312;-69
2024/04/09 01:14:11;;;;;;;6.53;2.80;;;;;14.40;96438.00;;;;5313815;26;20371;-68
2024/04/09 01:17:03;;;;;;;9.63;3.73;;;;;14.60;96432.00;;;;5317403;26;21056;-69
2024/04/09 01:19:54;;;;;;;10.00;4.03;;;;;14.90;96442.00;;;;5316114;26;20236;-69
2024/04/09 01:22:45;;;;;;;11.50;4.57;;;;;15.00;96439.00;;;;5301803;26;20726;-69
2024/04/09 01:25:36;;;;;;;6.00;2.50;;;;;14.90;96439.00;;;;5313460;26;20283;-69
2024/04/09 01:28:24;;;;;;;6.17;2.53;;;;;14.80;96426.00;;;;5312244;26;20734;-69
2024/04/09 01:31:15;;;;;;;4.07;1.87;;;;;14.60;96424.00;;;;5311960;26;20270;-69
2024/04/09 01:34:04;;;;;;;4.27;1.90;;;;;14.10;96426.00;;;;5313093;26;20300;-69
2024/04/09 01:36:55;;;;;;;13.03;5.03;;;;;14.60;96420.00;;;;5301969;26;20237;-69
2024/04/09 01:39:46;;;;;;;12.07;4.77;;;;;14.40;96420.00;;;;5316359;26;20797;-69
2024/04/09 01:42:37;;;;;;;8.30;3.40;;;;;13.80;96413.00;;;;5320218;26;20237;-69
2024/04/09 01:45:25;;;;;;;5.73;2.40;;;;;13.80;96416.00;;;;5313046;26;20233;-69
2024/04/09 01:48:16;;;;;;;6.77;2.90;;;;;13.70;96415.00;;;;5303502;26;20292;-69
2024/04/09 01:51:09;;;;;;;5.80;2.47;;;;;13.90;96424.00;;;;5308776;26;21129;-69
2024/04/09 01:54:00;;;;;;;6.80;2.80;;;;;13.50;96406.00;;;;5311379;26;20287;-69
2024/04/09 01:56:51;;;;;;;13.60;5.27;;;;;13.80;96410.00;;;;5308638;26;20350;-69
2024/04/09 01:59:42;;;;;;;6.90;3.10;;;;;13.60;96409.00;;;;5308896;26;20304;-69
2024/04/09 02:02:31;;;;;;;13.20;4.97;;;;;13.10;96402.00;;;;5305667;26;20289;-68
2024/04/09 02:05:22;;;;;;;7.33;3.17;;;;;13.30;96409.00;;;;5301238;26;20237;-69
2024/04/09 02:08:10;;;;;;;5.33;2.37;;;;;13.20;96406.00;;;;5315300;26;20228;-69
2024/04/09 02:11:05;;;;;;;6.90;2.87;;;;;12.80;96406.00;;;;5310952;26;20283;-69
2024/04/09 02:13:56;;;;;;;13.50;5.10;;;;;12.90;96403.00;;;;5317270;26;20271;-69
2024/04/09 02:16:46;;;;;;;12.73;5.00;;;;;12.90;96405.00;;;;5302409;26;20780;-69
2024/04/09 02:19:35;;;;;;;7.30;2.90;;;;;13.20;96405.00;;;;5307518;26;20583;-69
2024/04/09 02:22:26;;;;;;;5.73;2.33;;;;;13.20;96388.00;;;;5310301;26;20229;-69
2024/04/09 02:25:14;;;;;;;7.93;3.27;;;;;13.40;96405.00;;;;5312853;26;20393;-69
2024/04/09 02:28:05;;;;;;;6.33;2.70;;;;;13.60;96407.00;;;;5320912;26;20885;-69
2024/04/09 02:30:59;;;;;;;10.37;4.10;;;;;13.80;96400.00;;;;5306330;26;20283;-69
2024/04/09 02:33:48;;;;;;;13.43;5.30;;;;;13.50;96405.00;;;;5313640;26;20233;-69
2024/04/09 02:36:39;;;;;;;5.37;2.33;;;;;13.00;96401.00;;;;5316492;26;20305;-69
2024/04/09 02:39:28;;;;;;;7.67;3.27;;;;;12.20;96398.00;;;;5321681;26;20248;-68
2024/04/09 02:42:20;;;;;;;8.47;3.43;;;;;12.90;96400.00;;;;5322799;26;20232;-68
2024/04/09 02:45:09;;;;;;;9.17;3.70;;;;;13.00;96402.00;;;;5305827;26;20287;-69
2024/04/09 02:48:02;;;;;;;9.80;4.00;;;;;13.30;96400.00;;;;5304531;26;20233;-69
2024/04/09 02:50:55;;;;;;;9.60;3.90;;;;;13.30;96398.00;;;;5317713;26;20288;-68
2024/04/09 02:53:46;;;;;;;11.40;4.40;;;;;13.00;96394.00;;;;5311193;26;20283;-68
2024/04/09 02:56:34;;;;;;;6.47;2.80;;;;;12.20;96395.00;;;;5313727;26;20267;-68
2024/04/09 02:59:25;;;;;;;8.33;3.40;;;;;12.40;96398.00;;;;5306631;26;20237;-68
2024/04/09 03:02:14;;;;;;;6.53;2.73;;;;;12.20;96395.00;;;;5302263;26;20267;-68
2024/04/09 03:05:08;;;;;;;3.80;1.90;;;;;12.60;96396.00;;;;5317848;26;20244;-68
2024/04/09 03:07:56;;;;;;;12.37;4.90;;;;;12.50;96392.00;;;;5316857;26;20225;-68
2024/04/09 03:10:47;;;;;;;13.37;5.70;;;;;12.30;96394.00;;;;5310017;26;20237;-68
2024/04/09 03:13:35;;;;;;;6.40;3.30;;;;;11.80;96392.00;;;;5308259;26;20229;-68
2024/04/09 03:16:27;;;;;;;9.03;4.10;;;;;12.10;96393.00;;;;5304761;26;20287;-69
2024/04/09 03:19:17;;;;;;;7.37;3.43;;;;;12.50;96391.00;;;;5308362;26;20308;-69
2024/04/09 03:22:10;;;;;;;9.23;3.90;;;;;12.50;96389.00;;;;5315026;26;20240;-68
2024/04/09 03:24:58;;;;;;;12.07;4.90;;;;;12.70;96392.00;;;;5313510;26;20229;-69
2024/04/09 03:27:49;;;;;;;13.10;5.47;;;;;12.80;96392.00;;;;5309930;26;20283;-68
2024/04/09 03:30:38;;;;;;;9.57;4.43;;;;;12.60;96391.00;;;;5300081;26;20848;-68
2024/04/09 03:33:29;;;;;;;10.03;4.73;;;;;12.40;96383.00;;;;5313170;26;20282;-69
2024/04/09 03:36:17;;;;;;;8.67;4.00;;;;;12.10;96378.00;;;;5301413;27;20304;-69
2024/04/09 03:39:10;;;;;;;9.93;4.37;;;;;11.20;96382.00;;;;5304399;26;20290;-68
2024/04/09 03:42:01;;;;;;;13.77;5.40;;;;;11.40;96377.00;;;;5302721;26;20279;-69
2024/04/09 03:44:49;;;;;;;12.57;5.20;;;;;11.70;96378.00;;;;5310133;26;20237;-69
2024/04/09 03:47:40;;;;;;;12.37;4.87;;;;;12.10;96382.00;;;;5315188;26;20279;-68
2024/04/09 03:50:29;;;;;;;7.90;3.40;;;;;12.00;96374.00;;;;5318009;26;20237;-68
2024/04/09 03:53:19;;;;;;;8.57;3.43;;;;;11.90;96374.00;;;;5305247;26;20275;-68
2024/04/09 03:56:10;;;;;;;8.90;3.87;;;;;11.70;96380.00;;;;5304972;26;20606;-68
2024/04/09 03:59:01;;;;;;;13.67;5.50;;;;;11.60;96364.00;;;;5304329;26;20332;-69
2024/04/09 04:01:50;;;;;;;14.77;6.10;;;;;10.80;96359.00;;;;5313314;26;20279;-68
2024/04/09 04:04:40;;;;;;;9.40;3.90;;;;;11.10;96373.00;;;;5310257;26;20237;-68
2024/04/09 04:07:29;;;;;;;10.90;6.20;;;;;11.70;96366.00;;;;5301091;26;20248;-68
2024/04/09 04:10:20;;;;;;;17.03;15.33;;;;;11.70;96362.00;;;;5305187;27;20233;-68
2024/04/09 04:13:10;;;;;;;13.13;8.87;;;;;11.90;96363.00;;;;5300918;26;20283;-68
2024/04/09 04:16:05;;;;;;;15.43;9.30;;;;;11.40;96363.00;;;;5309095;26;20275;-69
2024/04/09 04:18:56;;;;;;;20.13;10.63;;;;;11.40;96366.00;;;;5306119;26;20320;-68
2024/04/09 04:21:44;;;;;;;15.63;9.93;;;;;11.90;96361.00;;;;5299749;26;20685;-68
2024/04/09 04:24:35;;;;;;;13.17;11.77;;;;;11.80;96377.00;;;;5308851;26;20278;-69
2024/04/09 04:27:24;;;;;;;16.73;13.17;;;;;11.80;96369.00;;;;5301547;26;20290;-69
2024/04/09 04:30:17;;;;;;;12.20;10.53;;;;;11.90;96373.00;;;;5306690;26;20279;-68
2024/04/09 04:33:06;;;;;;;22.57;20.60;;;;;12.00;96369.00;;;;5306383;26;20306;-68
2024/04/09 04:35:57;;;;;;;54.90;50.37;;;;;11.60;96366.00;;;;5305452;26;20292;-68
2024/04/09 04:38:46;;;;;;;71.30;65.10;;;;;10.90;96360.00;;;;5300349;26;25081;-68
2024/04/09 04:41:37;;;;;;;85.37;76.87;;;;;11.30;96364.00;;;;5304661;26;20584;-69
2024/04/09 04:44:25;;;;;;;108.20;88.97;;;;;11.70;96365.00;;;;5301706;26;20370;-68
2024/04/09 04:47:19;;;;;;;59.90;54.10;;;;;11.80;96370.00;;;;5300563;26;20294;-67
2024/04/09 04:50:07;;;;;;;29.10;26.73;;;;;11.50;96369.00;;;;5300159;26;20305;-68
2024/04/09 04:52:58;;;;;;;33.47;30.27;;;;;11.40;96360.00;;;;5301146;26;20287;-68
2024/04/09 04:55:47;;;;;;;36.53;33.13;;;;;12.00;96365.00;;;;5299357;26;22230;-68
2024/04/09 04:58:37;;;;;;;33.03;30.83;;;;;11.80;96366.00;;;;5304346;26;20279;-69
2024/04/09 05:01:29;;;;;;;31.13;28.63;;;;;11.70;96357.00;;;;5302596;26;20287;-68
2024/04/09 05:04:20;;;;;;;35.07;32.63;;;;;11.80;96349.00;;;;5302832;26;20249;-69
2024/04/09 05:07:11;;;;;;;38.87;36.03;;;;;12.00;96355.00;;;;5303822;26;20240;-69
2024/04/09 05:10:00;;;;;;;47.73;43.97;;;;;12.10;96352.00;;;;5304109;26;20282;-69
2024/04/09 05:12:51;;;;;;;45.60;41.93;;;;;11.50;96352.00;;;;5302780;26;20312;-68
2024/04/09 05:15:42;;;;;;;42.77;39.87;;;;;11.60;96343.00;;;;5298188;26;20283;-68
2024/04/09 05:18:31;;;;;;;45.53;42.23;;;;;11.90;96357.00;;;;5318547;26;20291;-68
2024/04/09 05:21:24;;;;;;;50.27;46.67;;;;;12.50;96360.00;;;;5300245;26;20278;-68
2024/04/09 05:24:13;;;;;;;43.77;40.77;;;;;12.70;96349.00;;;;5309179;26;20233;-68
2024/04/09 05:27:03;;;;;;;52.33;48.07;;;;;12.60;96353.00;;;;5302971;26;20545;-70
2024/04/09 05:29:54;;;;;;;44.10;40.87;;;;;13.20;96342.00;;;;5306943;26;20690;-70
2024/04/09 05:32:43;;;;;;;41.97;39.47;;;;;12.80;96350.00;;;;5299415;26;20233;-70
2024/04/09 05:35:34;;;;;;;46.17;42.77;;;;;12.40;96345.00;;;;5300337;27;20683;-70
2024/04/09 05:38:25;;;;;;;191.73;113.23;;;;;12.30;96345.00;;;;5302629;26;20290;-69
2024/04/09 05:41:15;;;;;;;156.43;101.20;;;;;12.60;96351.00;;;;5304227;26;20287;-70
2024/04/09 05:44:04;;;;;;;87.10;78.83;;;;;13.00;96349.00;;;;5299572;26;20233;-70
2024/04/09 05:46:55;;;;;;;71.13;64.67;;;;;13.20;96345.00;;;;5303763;26;20233;-70
2024/04/09 05:49:43;;;;;;;55.30;51.50;;;;;13.60;96342.00;;;;5297875;26;20296;-70
2024/04/09 05:52:36;;;;;;;61.43;57.20;;;;;13.80;96346.00;;;;5305341;26;20309;-70
2024/04/09 05:55:26;;;;;;;80.73;73.40;;;;;13.80;96342.00;;;;5307649;26;20765;-69
2024/04/09 05:58:17;;;;;;;64.87;59.93;;;;;13.90;96325.00;;;;5306763;26;20232;-69
2024/04/09 06:01:08;;;;;;;55.10;49.60;;;;;13.50;96329.00;;;;5301474;26;20233;-69
2024/04/09 06:03:59;;;;;;;53.27;49.10;;;;;13.70;96325.00;;;;5300614;27;20296;-69
2024/04/09 06:06:47;;;;;;;80.97;74.53;;;;;13.30;96324.00;;;;5301707;26;20347;-69
2024/04/09 06:09:38;;;;;;;94.90;83.90;;;;;13.50;96314.00;;;;5306952;26;20280;-70
2024/04/09 06:12:29;;;;;;;229.87;128.97;;;;;13.80;96321.00;;;;5308459;26;20300;-69
2024/04/09 06:15:21;;;;;;;221.93;127.27;;;;;13.80;96315.00;;;;5314702;26;20643;-69
2024/04/09 06:18:10;;;;;;;263.50;130.90;;;;;14.20;96316.00;;;;5310788;26;20278;-69
2024/04/09 06:21:01;;;;;;;288.27;141.40;;;;;14.00;96329.00;;;;5303609;26;20252;-69
2024/04/09 06:23:49;;;;;;;298.53;145.23;;;;;14.70;96321.00;;;;5304316;26;20229;-70
2024/04/09 06:26:40;;;;;;;221.87;130.90;;;;;14.80;96325.00;;;;5307396;26;20236;-70
2024/04/09 06:29:31;;;;;;;221.63;138.13;;;;;15.10;96321.00;;;;5304944;26;20324;-69
2024/04/09 06:32:22;;;;;;;240.23;145.20;;;;;15.10;96322.00;;;;5306584;26;20291;-69
2024/04/09 06:35:11;;;;;;;182.23;126.13;;;;;15.20;96319.00;;;;5302455;26;20309;-69
2024/04/09 06:38:02;;;;;;;256.17;149.27;;;;;15.50;96311.00;;;;5304844;26;20228;-69
2024/04/09 06:41:30;;;;;;;278.03;150.80;;;;;15.70;96309.00;;;;5301920;26;20252;-70
2024/04/09 06:44:34;;;;;;;121.63;102.13;;;;;15.90;96304.00;;;;5303604;26;20236;-70
2024/04/09 06:48:20;;;;;;;270.53;155.63;;;;;16.00;96296.00;;;;5306988;26;20649;-70
2024/04/09 06:51:21;;;;;;;249.57;152.43;;;;;16.40;96305.00;;;;5307491;26;20350;-69
2024/04/09 06:54:09;;;;;;;204.63;140.50;;;;;17.00;96304.00;;;;5301806;26;20359;-69
2024/04/09 06:57:01;;;;;;;293.77;168.20;;;;;17.20;96305.00;;;;5302534;26;20652;-70
2024/04/09 06:59:52;;;;;;;160.03;131.63;;;;;17.60;96308.00;;;;5300807;26;20292;-70
2024/04/09 07:02:43;;;;;;;124.03;112.93;;;;;17.40;96304.00;;;;5303558;26;20236;-70
2024/04/09 07:05:31;;;;;;;270.33;238.50;;;;;17.90;96303.00;;;;5304805;26;20232;-70
2024/04/09 07:08:22;;;;;;;151.37;138.83;;;;;18.00;96304.00;;;;5306113;26;20236;-69
2024/04/09 07:11:10;;;;;;;138.57;128.07;;;14.80;99.90;18.00;96306.00;;;;5302915;26;20304;-70
2024/04/09 07:14:01;;;;;;;84.60;79.30;;;14.80;99.90;18.40;96301.00;;;;5302437;26;20426;-71
2024/04/09 07:16:54;;;;;;;130.10;121.00;;;15.00;99.90;18.20;96304.00;;;;5303759;26;20237;-70
2024/04/09 07:19:45;;;;;;;172.40;158.43;;;15.10;99.90;18.40;96306.00;;;;5304415;26;20236;-70
2024/04/09 07:22:33;;;;;;;36.53;34.43;;;15.30;99.90;18.50;96311.00;;;;5301645;26;20295;-70
2024/04/09 07:25:24;;;;;;;62.93;58.97;;;15.40;99.90;19.00;96301.00;;;;5303593;26;20282;-70
2024/04/09 07:28:16;;;;;;;163.53;136.50;;;15.60;99.90;19.20;96308.00;;;;5304236;26;20698;-70
2024/04/09 07:31:05;;;;;;;28.83;26.53;;;15.80;99.90;19.50;96309.00;;;;5305648;26;20320;-70
2024/04/09 07:33:58;;;;;;;15.93;12.17;;;16.00;99.90;20.00;96305.00;;;;5303641;26;20305;-70
2024/04/09 07:36:46;;;;;;;17.43;13.60;;;16.30;99.90;20.30;96312.00;;;;5300413;26;20309;-71
2024/04/09 07:39:37;;;;;;;11.27;10.27;;;16.50;99.90;20.50;96314.00;;;;5305911;26;20321;-70
2024/04/09 07:42:25;;;;;;;15.40;14.13;;;16.70;99.90;20.80;96314.00;;;;5306278;26;20313;-70
2024/04/09 07:45:16;;;;;;;19.97;18.37;;;;;21.10;96307.00;;;;5301672;26;20236;-70
2024/04/09 07:48:05;;;;;;;59.33;56.27;;;;;21.30;96318.00;;;;5306079;26;20296;-70
2024/04/09 07:51:00;;;;;;;95.57;91.00;;;;;21.60;96318.00;;;;5303997;26;20241;-70
2024/04/09 07:53:48;;;;;;;173.93;164.00;;;;;21.60;96311.00;;;;5306762;26;20292;-70
2024/04/09 07:56:39;;;;;;;204.43;192.70;;;;;21.80;96313.00;;;;5305370;26;20279;-69
2024/04/09 07:59:27;;;;;;;169.10;160.77;;;;;22.00;96307.00;;;;5304392;26;20633;-70
2024/04/09 08:02:18;;;;;;;165.00;155.97;;;;;22.10;96311.00;;;;5305736;26;20305;-70
2024/04/09 08:05:09;;;;;;;176.50;167.73;;;;;22.20;96310.00;;;;5305767;26;20329;-70
2024/04/09 08:08:03;;;;;;;201.97;191.10;;;;;22.10;96305.00;;;;5300227;26;20289;-70
2024/04/09 08:10:52;;;;;;;173.83;165.23;;;;;22.30;96311.00;;;;5302988;26;20276;-70
2024/04/09 08:13:43;;;;;;;228.53;216.23;;;;;22.50;96306.00;;;;5301177;26;20295;-70
2024/04/09 08:16:31;;;;;;;269.37;253.77;;;;;22.40;96302.00;;;;5306979;26;20241;-70
2024/04/09 08:19:22;;;;;;;292.87;274.80;;;;;22.20;96315.00;;;;5301971;26;20284;-70
2024/04/09 08:22:11;;;;;;;259.17;244.23;;;;;22.30;96305.00;;;;5307249;26;20677;-70
2024/04/09 08:25:04;;;;;;;198.43;188.53;;;;;22.50;96308.00;;;;5302733;26;20587;-70
2024/04/09 08:27:54;;;;;;;193.03;183.23;;;;;22.40;96314.00;;;;5302609;26;21053;-70
2024/04/09 08:30:45;;;;;;;176.77;168.70;;;;;22.50;96311.00;;;;5305069;26;20289;-70
2024/04/09 08:33:34;;;;;;;228.57;217.17;;;;;23.00;96306.00;;;;5306530;26;20244;-69
2024/04/09 08:36:27;;;;;;;325.33;303.43;;;;;23.20;96308.00;;;;5303093;26;20271;-69
2024/04/09 08:39:16;;;;;;;311.60;291.67;;;;;23.30;96305.00;;;;5298059;26;20245;-70
2024/04/09 08:42:10;;;;;;;348.27;323.20;;;;;23.60;96306.00;;;;5304439;26;20798;-70
2024/04/09 08:44:59;;;;;;;369.43;340.13;;;;;23.70;96302.00;;;;5304832;26;20241;-70
2024/04/09 08:47:51;;;;;;;371.87;343.93;;;;;23.90;96305.00;;;;5295808;26;20295;-70
2024/04/09 08:50:41;;;;;;;381.03;345.50;;;;;23.90;96298.00;;;;5304491;26;20610;-70
2024/04/09 08:53:35;;;;;;;83.03;79.57;;;;;24.10;96303.00;;;;5304407;26;20312;-70
2024/04/09 08:56:23;;;;;;;105.50;100.87;;;;;24.40;96303.00;;;;5309002;26;20241;-70
2024/04/09 08:59:16;;;;;;;88.40;84.83;;;;;24.80;96293.00;;;;5312158;26;20282;-70
2024/04/09 09:02:09;;;;;;;63.73;60.73;;;;;24.70;96293.00;;;;5310082;26;20294;-69
2024/04/09 09:05:00;;;;;;;97.43;92.50;;;;;24.90;96285.00;;;;5304325;26;20233;-71
2024/04/09 09:07:58;;;;;;;98.07;93.47;;;;;25.40;96287.00;;;;5304024;26;20379;-70
2024/04/09 09:10:56;;;;;;;109.63;105.00;;;;;25.90;96283.00;;;;5301386;26;20308;-70
2024/04/09 09:13:45;;;;;;;110.37;105.73;;;;;26.20;96284.00;;;;5300096;26;20241;-70
2024/04/09 09:16:38;;;;;;;118.83;113.90;;;;;26.50;96277.00;;;;5303941;26;20286;-70
2024/04/09 09:19:30;;;;;;;116.67;111.77;;;;;26.90;96289.00;;;;5304674;26;20291;-70
2024/04/09 09:22:22;;;;;;;135.73;130.10;;;;;27.10;96279.00;;;;5300684;26;20293;-70
2024/04/09 09:25:15;;;;;;;161.67;155.33;;;;;27.50;96290.00;;;;5304515;26;20237;-70
2024/04/09 09:28:07;;;;;;;741.03;696.93;;;;;27.20;96275.00;;;;5299641;26;20754;-70
2024/04/09 09:30:56;;;;;;;336.13;321.87;;;;;27.70;96283.00;;;;5301857;26;20531;-71
2024/04/09 09:33:53;;;;;;;281.20;270.70;;;;;27.70;96279.00;;;;5297565;27;20248;-70
2024/04/09 09:36:42;;;;;;;225.60;217.00;;;;;27.80;96271.00;;;;5305479;26;20239;-70
2024/04/09 09:39:35;;;;;;;185.70;178.97;;;;;27.90;96269.00;;;;5305603;26;20246;-71
2024/04/09 09:42:25;;;;;;;178.07;171.20;;;;;27.90;96273.00;;;;5302101;26;20495;-71
2024/04/09 09:45:17;;;;;;;188.23;180.90;;;;;27.40;96269.00;;;;5299785;26;20232;-71
2024/04/09 09:48:06;;;;;;;130.90;125.87;;;;;27.60;96270.00;;;;5302506;26;20320;-71
2024/04/09 09:51:00;;;;;;;177.73;169.70;;;;;27.40;96271.00;;;;5300416;26;20643;-71
2024/04/09 09:53:48;;;;;;;134.00;128.37;;;;;28.70;96262.00;;;;5302767;26;20251;-71
2024/04/09 09:56:40;;;;;;;123.53;118.47;;;;;28.70;96259.00;;;;5297644;26;20233;-71
2024/04/09 09:59:32;;;;;;;139.17;133.73;;;;;29.20;96262.00;;;;5299737;26;20921;-71
2024/04/09 10:02:23;;;;;;;156.50;150.43;;;;;29.80;96258.00;;;;5299380;26;20232;-71
2024/04/09 10:05:14;;;;;;;118.87;114.13;;;;;30.00;96261.00;;;;5310459;26;20303;-71
2024/04/09 10:08:20;;;;;;;188.90;180.93;;;;;30.00;96258.00;;;;5302884;26;20230;-71
2024/04/09 10:11:08;;;;;;;183.80;176.83;;;;;30.30;96265.00;;;;5315084;26;20617;-71
2024/04/09 10:14:04;;;;;;;210.13;200.90;;;;;29.80;96257.00;;;;5298176;26;20247;-72
2024/04/09 10:16:53;;;;;;;222.17;212.43;;;;;30.00;96250.00;;;;5301334;26;20272;-72
2024/04/09 10:19:44;;;;;;;222.80;214.47;;;;;30.70;96253.00;;;;5300976;26;20283;-71
2024/04/09 10:22:33;;;;;;;223.43;215.30;;;;;31.00;96255.00;;;;5297382;26;20311;-72
2024/04/09 10:28:30;;;;;;;263.67;254.10;;;;;29.90;96251.00;;;;5343059;26;20313;-68
2024/04/09 10:31:20;;;;;;;224.10;215.87;;;;;31.30;96244.00;;;;5363837;26;20279;-69
2024/04/09 10:34:10;;;;;;;251.87;242.10;;;;;31.10;96245.00;;;;5360242;26;20236;-69
2024/04/09 10:36:59;;;;;;;276.67;265.13;;;;;30.70;96239.00;;;;5348692;26;20240;-69
2024/04/09 10:39:50;;;;;;;333.00;320.23;;;;;31.10;96240.00;;;;5329111;26;20238;-69
2024/04/09 10:42:38;;;;;;;320.97;309.00;;;;;31.70;96240.00;;;;5353413;26;20305;-69
2024/04/09 10:45:32;;;;;;;385.60;369.87;;;;;32.20;96250.00;;;;5342183;26;20295;-69
2024/04/09 10:48:20;;;;;;;407.73;391.33;;;;;31.60;96239.00;;;;5336981;26;20293;-69
2024/04/09 10:51:12;;;;;;;397.47;381.33;;;;;31.10;96238.00;;;;5356614;26;20297;-69
2024/04/09 10:54:01;;;;;;;436.13;417.40;;;;;31.00;96223.00;;;;5352866;26;20285;-69
2024/04/09 10:57:01;;;;;;;369.80;355.20;;;;;30.70;96216.00;;;;5344415;26;20242;-68
2024/04/09 10:59:49;;;;;;;401.10;384.80;;;;;30.60;96219.00;;;;5353898;26;20238;-69
2024/04/09 11:02:44;;;;;;;398.60;382.53;;;;;31.20;96217.00;;;;5344752;26;20241;-69
2024/04/09 11:05:32;;;;;;;566.27;534.90;;;;;32.40;96207.00;;;;5334020;26;20381;-69
2024/04/09 11:08:31;;;;;;;429.58;410.67;;;;;32.80;96200.00;;;;5315144;26;21036;-69
2024/04/09 11:11:19;;;;;;;484.73;462.90;;;;;32.00;96198.00;;;;5326969;26;20371;-69
2024/04/09 11:14:13;;;;;;;526.58;501.45;;;;;33.20;96197.00;;;;5322948;26;20625;-69
2024/04/09 11:17:02;;;;;;;902.00;842.40;;;;;33.40;96197.00;;;;5318533;26;20395;-69
2024/04/09 11:19:55;;;;;;;748.05;693.30;;;;;32.80;96189.00;;;;5325214;26;20482;-69
2024/04/09 11:22:44;;;;;;;720.23;666.13;;;;;34.00;96189.00;;;;5322228;26;20275;-69
2024/04/09 11:25:39;;;;;;;720.77;666.00;;;;;34.50;96181.00;;;;5318772;26;20296;-69
2024/04/09 11:28:29;;;;;;;724.07;670.00;;;;;34.70;96183.00;;;;5301896;26;20256;-69
2024/04/09 11:31:23;;;;;;;729.10;676.08;;;;;35.30;96183.00;;;;5318757;26;20249;-69
2024/04/09 11:34:15;;;;;;;757.50;711.58;;;;;34.50;96201.00;;;;5320937;26;20599;-70
2024/04/09 11:37:11;;;;;;;775.63;725.53;;;;;34.90;96180.00;;;;5310999;26;20285;-70
2024/04/09 11:40:00;;;;;;;750.38;695.28;;;;;35.40;96194.00;;;;5303769;26;20304;-69
2024/04/09 11:42:52;;;;;;;763.10;708.45;;;;;35.20;96188.00;;;;5315563;26;20245;-69
2024/04/09 11:45:40;;;;;;;757.13;702.83;;;;;35.10;96194.00;;;;5304228;26;20271;-69
2024/04/09 11:48:32;;;;;;;781.45;728.63;;;;;34.60;96206.00;;;;5306544;26;20232;-69
2024/04/09 11:51:20;;;;;;;776.28;722.13;;;;;33.40;96201.00;;;;5308205;26;20304;-69
2024/04/09 11:54:14;;;;;;;775.33;721.95;;;;;33.00;96198.00;;;;5314832;26;20662;-69
2024/04/09 11:57:03;;;;;;;783.63;730.63;;;;;33.10;96187.00;;;;5303536;26;20297;-69
2024/04/09 11:59:53;;;;;;;755.28;704.75;;;;;33.10;96189.00;;;;5303998;26;20785;-69
2024/04/09 12:02:42;;;;;;;748.63;700.47;;;;;34.60;96155.00;;;;5305097;26;20312;-69
2024/04/09 12:05:34;;;;;;;745.28;698.15;;;;;33.80;96165.00;;;;5298821;26;20667;-70
2024/04/09 12:08:22;;;;;;;757.65;708.10;;;;;34.80;96153.00;;;;5302893;26;20248;-69
2024/04/09 12:11:16;;;;;;;761.20;710.55;;;;;34.90;96154.00;;;;5307498;26;20288;-69
2024/04/09 12:14:06;;;;;;;775.95;722.42;;;;;36.10;96139.00;;;;5303122;26;20583;-69
2024/04/09 12:16:57;;;;;;;789.92;734.80;;;;;35.60;96142.00;;;;5298642;26;20293;-69
2024/04/09 12:19:46;;;;;;;792.60;737.80;;;;;36.40;96144.00;;;;5298626;26;20320;-69
2024/04/09 12:22:37;;;;;;;801.58;746.45;;;;;34.70;96117.00;;;;5303260;26;20305;-69
2024/04/09 12:25:25;;;;;;;803.33;747.90;;;;;33.00;96126.00;;;;5304831;26;20229;-67
2024/04/09 12:28:19;;;;;;;780.03;725.55;;;;;32.20;96115.00;;;;5346982;26;20227;-70
2024/04/09 12:31:10;;;;;;;776.65;726.25;;;;;32.20;96113.00;;;;5339290;26;20288;-66
2024/04/09 12:33:58;;;;;;;753.08;707.75;;;;;33.40;96129.00;;;;5345103;26;20280;-67
2024/04/09 12:36:49;;;;;;;714.65;674.67;;;;;32.40;96122.00;;;;5321618;26;20694;-69
2024/04/09 12:39:38;;;;;;;709.13;669.65;;;;;31.20;96125.00;;;;5339571;26;20251;-69
2024/04/09 12:42:29;;;;;;;655.92;621.58;;;;;31.60;96116.00;;;;5347539;26;20292;-69
2024/04/09 12:45:20;;;;;;;592.03;563.53;;;;;32.40;96124.00;;;;5342615;26;20291;-68
2024/04/09 12:48:11;;;;;;;579.92;552.50;;;;;31.90;96129.00;;;;5343349;26;20746;-67
2024/04/09 12:50:59;;;;;;;561.47;535.05;;;;;30.80;96135.00;;;;5344938;26;20893;-65
2024/04/09 12:53:51;;;;;;;573.25;546.13;;;;;30.90;96148.00;;;;5338032;26;20232;-66
2024/04/09 12:56:39;;;;;;;473.80;453.23;;;;;31.20;96136.00;;;;5342740;26;20250;-68
2024/04/09 12:59:35;;;;;;;513.63;490.80;;;;;31.40;96121.00;;;;5339565;26;20250;-68
2024/04/09 13:02:32;;;;;;;457.93;438.83;;;;;31.20;96116.00;;;;5343990;26;20305;-69
2024/04/09 13:05:23;;;;;;;487.38;465.92;;;;;31.50;96119.00;;;;5334721;26;20239;-66
2024/04/09 13:08:12;;;;;;;487.17;466.08;;;;;30.60;96125.00;;;;5349413;26;20242;-66
2024/04/09 13:11:03;;;;;;;495.03;472.37;;;;;30.30;96160.00;;;;5344464;26;20303;-68
2024/04/09 13:13:52;;;;;;;482.70;461.63;;;;;29.70;96140.00;;;;5339065;26;20255;-68
2024/04/09 13:16:42;;;;;;;401.73;385.90;;;;;30.20;96128.00;;;;5345904;26;20232;-69
2024/04/09 13:19:34;;;;;;;308.17;296.53;;;;;30.60;96116.00;;;;5338706;26;20233;-67
2024/04/09 13:22:25;;;;;;;256.70;247.33;;;;;29.80;96126.00;;;;5348120;26;20333;-65
2024/04/09 13:25:13;;;;;;;260.10;250.87;;;;;29.90;96123.00;;;;5351094;26;20293;-68
2024/04/09 13:28:04;;;;;;;234.37;225.03;;;;;29.90;96117.00;;;;5338482;26;20299;-67
2024/04/09 13:30:52;;;;;;;209.47;201.67;;;;;30.50;96111.00;;;;5344093;26;20228;-65
2024/04/09 13:33:43;;;;;;;222.83;214.33;;;;;31.00;96107.00;;;;5340367;26;20234;-68
2024/04/09 13:36:34;;;;;;;347.37;333.70;;;;;30.70;96105.00;;;;5342493;26;20237;-69
2024/04/09 13:39:25;;;;;;;423.10;406.03;;;;;31.20;96116.00;;;;5343645;26;20232;-68
2024/04/09 13:42:13;;;;;;;372.07;357.53;;;;;30.70;96103.00;;;;5348561;26;20287;-66
2024/04/09 13:45:04;;;;;;;371.83;357.17;;;;;30.50;96105.00;;;;5341499;26;20291;-68
2024/04/09 13:47:53;;;;;;;387.50;372.00;;;;;30.60;96102.00;;;;5346543;26;20286;-67